EXS94CD EGNT-LGIR
Flight info
| Callsign | EXS94CD |
|---|---|
| Flight time | N/A |
| Altitude | 39000 |
| Route | NATEB DCT GIVEM DCT TOPPA DCT DODEN DCT NEGIX DCT DINKU DCT BESNI DCT LATLO DCT OBEDI DCT KLAGY DCT TEBLI DCT BOSNA DCT LIKVI DCT TODNI DCT AKIKA DCT MAVAR DCT BITLA UN132 KEA UL607 GIVIS T514 XAVIS |
| Aircraft | B738/M-SDE2E3FGHIRWXY/LB1 |
Departure
| Time | 2026-05-01 15:13 |
|---|---|
| Airport | Newcastle International Airport (EGNT) |
Arrival
| Time | N/A |
|---|---|
| Airport | Heraklion International Nikos Kazantzakis Airport (LGIR) |
| Time | Latitude | Longitude | Altitude | Speed | Heading |
|---|---|---|---|---|---|
| 2026-05-01 14:46 | 55.03697 | -1.70562 | 266 ft | 0 kts | 264° |
| 2026-05-01 15:03 | 55.03697 | -1.70557 | 266 ft | 3 kts | 264° |
| 2026-05-01 15:03 | 55.03699 | -1.70510 | 266 ft | 4 kts | 273° |
| 2026-05-01 15:03 | 55.03694 | -1.70465 | 266 ft | 4 kts | 295° |
| 2026-05-01 15:04 | 55.03680 | -1.70438 | 266 ft | 4 kts | 356° |
| 2026-05-01 15:04 | 55.03676 | -1.70437 | 266 ft | 1 kts | 4° |
| 2026-05-01 15:07 | 55.03681 | -1.70436 | 266 ft | 2 kts | 4° |
| 2026-05-01 15:08 | 55.03700 | -1.70434 | 266 ft | 4 kts | 4° |
| 2026-05-01 15:08 | 55.03741 | -1.70428 | 266 ft | 7 kts | 7° |
| 2026-05-01 15:08 | 55.03780 | -1.70361 | 266 ft | 10 kts | 76° |
| 2026-05-01 15:08 | 55.03777 | -1.70214 | 263 ft | 15 kts | 93° |
| 2026-05-01 15:09 | 55.03772 | -1.70012 | 260 ft | 19 kts | 90° |
| 2026-05-01 15:09 | 55.03790 | -1.69771 | 258 ft | 21 kts | 78° |
| 2026-05-01 15:09 | 55.03835 | -1.69507 | 255 ft | 24 kts | 68° |
| 2026-05-01 15:09 | 55.03908 | -1.69229 | 253 ft | 26 kts | 65° |
| 2026-05-01 15:10 | 55.03988 | -1.68932 | 250 ft | 27 kts | 65° |
| 2026-05-01 15:10 | 55.04136 | -1.68374 | 247 ft | 24 kts | 65° |
| 2026-05-01 15:10 | 55.04203 | -1.68120 | 246 ft | 23 kts | 65° |
| 2026-05-01 15:11 | 55.04267 | -1.67874 | 246 ft | 22 kts | 65° |
| 2026-05-01 15:11 | 55.04313 | -1.67402 | 240 ft | 19 kts | 126° |
| 2026-05-01 15:11 | 55.04208 | -1.67378 | 241 ft | 15 kts | 233° |
| 2026-05-01 15:12 | 55.04200 | -1.67403 | 241 ft | 0 kts | 244° |
| 2026-05-01 15:12 | 55.03857 | -1.68721 | 250 ft | 125 kts | 245° |
| 2026-05-01 15:12 | 55.03417 | -1.70380 | 335 ft | 170 kts | 244° |
| 2026-05-01 15:13 | 55.02033 | -1.76128 | 2626 ft | 173 kts | 250° |
| 2026-05-01 15:14 | 55.03145 | -1.79650 | 4046 ft | 199 kts | 343° |
| 2026-05-01 15:14 | 55.04547 | -1.79729 | 4699 ft | 211 kts | 359° |
| 2026-05-01 15:14 | 55.07420 | -1.77579 | 5092 ft | 259 kts | 58° |
| 2026-05-01 15:15 | 55.08638 | -1.71458 | 6076 ft | 275 kts | 80° |
| 2026-05-01 15:15 | 55.08725 | -1.64675 | 7457 ft | 285 kts | 97° |
| 2026-05-01 15:16 | 55.08605 | -1.57707 | 9113 ft | 291 kts | 91° |
| 2026-05-01 15:16 | 55.09128 | -1.50582 | 10547 ft | 306 kts | 82° |
| 2026-05-01 15:17 | 55.10289 | -1.42826 | 10923 ft | 354 kts | 76° |
| 2026-05-01 15:18 | 55.12955 | -1.29605 | 11555 ft | 408 kts | 72° |
| 2026-05-01 15:18 | 55.13969 | -1.25008 | 12115 ft | 413 kts | 71° |
| 2026-05-01 15:19 | 55.17150 | -1.10838 | 13934 ft | 422 kts | 71° |
| 2026-05-01 15:19 | 55.19305 | -1.01202 | 14976 ft | 428 kts | 72° |
| 2026-05-01 15:19 | 55.20390 | -0.96329 | 15515 ft | 431 kts | 72° |
| 2026-05-01 15:20 | 55.22577 | -0.86456 | 16542 ft | 438 kts | 72° |
| 2026-05-01 15:20 | 55.23676 | -0.81474 | 17038 ft | 441 kts | 72° |
| 2026-05-01 15:20 | 55.24785 | -0.76438 | 17526 ft | 444 kts | 72° |
| 2026-05-01 15:21 | 55.25896 | -0.71374 | 18015 ft | 447 kts | 72° |
| 2026-05-01 15:21 | 55.27016 | -0.66264 | 18469 ft | 450 kts | 72° |
| 2026-05-01 15:21 | 55.28139 | -0.61123 | 18870 ft | 453 kts | 72° |
| 2026-05-01 15:21 | 55.29073 | -0.56836 | 19201 ft | 456 kts | 72° |
| 2026-05-01 15:22 | 55.31345 | -0.46374 | 20017 ft | 461 kts | 72° |
| 2026-05-01 15:22 | 55.32488 | -0.41095 | 20413 ft | 464 kts | 72° |
| 2026-05-01 15:22 | 55.33636 | -0.35774 | 20786 ft | 467 kts | 72° |
| 2026-05-01 15:23 | 55.34789 | -0.30419 | 21149 ft | 470 kts | 72° |
| 2026-05-01 15:23 | 55.35945 | -0.25034 | 21522 ft | 473 kts | 73° |
| 2026-05-01 15:23 | 55.37107 | -0.19605 | 21867 ft | 476 kts | 73° |
| 2026-05-01 15:23 | 55.38275 | -0.14138 | 22222 ft | 478 kts | 73° |
| 2026-05-01 15:24 | 55.39443 | -0.08651 | 22548 ft | 481 kts | 73° |
| 2026-05-01 15:24 | 55.40618 | -0.03120 | 22877 ft | 484 kts | 73° |
| 2026-05-01 15:24 | 55.41799 | 0.02448 | 23192 ft | 487 kts | 73° |
| 2026-05-01 15:24 | 55.42981 | 0.08044 | 23511 ft | 489 kts | 73° |
| 2026-05-01 15:25 | 55.44121 | 0.13688 | 23791 ft | 489 kts | 78° |
| 2026-05-01 15:25 | 55.44514 | 0.19564 | 24013 ft | 481 kts | 97° |
| 2026-05-01 15:25 | 55.43929 | 0.25289 | 24350 ft | 471 kts | 112° |
| 2026-05-01 15:25 | 55.42646 | 0.30521 | 24730 ft | 462 kts | 124° |
| 2026-05-01 15:26 | 55.40756 | 0.34984 | 25144 ft | 452 kts | 138° |
| 2026-05-01 15:26 | 55.38538 | 0.38863 | 25577 ft | 448 kts | 140° |
| 2026-05-01 15:26 | 55.36316 | 0.42596 | 25955 ft | 447 kts | 141° |
| 2026-05-01 15:26 | 55.34056 | 0.46354 | 26323 ft | 447 kts | 141° |
| 2026-05-01 15:27 | 55.31805 | 0.50107 | 26727 ft | 446 kts | 140° |
| 2026-05-01 15:27 | 55.29584 | 0.53839 | 27456 ft | 436 kts | 140° |
| 2026-05-01 15:27 | 55.27445 | 0.57461 | 28528 ft | 420 kts | 140° |
| 2026-05-01 15:28 | 55.23384 | 0.64369 | 30391 ft | 396 kts | 141° |
| 2026-05-01 15:28 | 55.21418 | 0.67706 | 30857 ft | 393 kts | 141° |
| 2026-05-01 15:28 | 55.19444 | 0.71046 | 31085 ft | 397 kts | 141° |
| 2026-05-01 15:29 | 55.15430 | 0.77818 | 31460 ft | 404 kts | 140° |
| 2026-05-01 15:29 | 55.13402 | 0.81235 | 31708 ft | 406 kts | 140° |
| 2026-05-01 15:29 | 55.09318 | 0.88114 | 32204 ft | 409 kts | 140° |
| 2026-05-01 15:30 | 55.05201 | 0.95029 | 32687 ft | 412 kts | 140° |
| 2026-05-01 15:31 | 54.96864 | 1.08967 | 33581 ft | 418 kts | 141° |
| 2026-05-01 15:31 | 54.92645 | 1.15989 | 34001 ft | 421 kts | 141° |
| 2026-05-01 15:32 | 54.88393 | 1.23043 | 34342 ft | 424 kts | 141° |
| 2026-05-01 15:32 | 54.84100 | 1.30143 | 34614 ft | 428 kts | 140° |
| 2026-05-01 15:33 | 54.77646 | 1.40779 | 35160 ft | 429 kts | 140° |
| 2026-05-01 15:34 | 54.71116 | 1.51488 | 35159 ft | 431 kts | 140° |